Time;durP1;ratioP1;P1;durP2;ratioP2;P2;SDS_P1;SDS_P2;PMS_P1;PMS_P2;Temp;Humidity;BMP_temperature;BMP_pressure;BME280_temperature;BME280_humidity;BME280_pressure;Samples;Min_cycle;Max_cycle;Signal;HPM_P1;HPM_P2
2021/09/27 00:00:33;;;;;;;13.02;11.82;;;19.00;99.90;;;;;;2080374;28;20536;-69
2021/09/27 00:01:33;;;;;;;12.52;11.43;;;19.00;99.90;;;;;;2080395;28;20107;-69
2021/09/27 00:02:34;;;;;;;13.38;12.07;;;19.00;99.90;;;;;;2079922;28;20022;-69
2021/09/27 00:03:35;;;;;;;13.48;12.13;;;19.00;99.90;;;;;;2082550;28;20039;-69
2021/09/27 00:04:36;;;;;;;13.02;11.77;;;19.00;99.90;;;;;;2080086;28;20084;-68
2021/09/27 00:05:37;;;;;;;12.90;10.27;;;19.00;99.90;;;;;;2080062;28;20029;-69
2021/09/27 00:06:37;;;;;;;13.15;12.00;;;19.00;99.90;;;;;;2079945;28;20029;-68
2021/09/27 00:07:39;;;;;;;12.10;10.98;;;19.00;99.90;;;;;;2079911;28;20044;-69
2021/09/27 00:08:40;;;;;;;12.30;10.98;;;19.00;99.90;;;;;;2079796;28;20048;-69
2021/09/27 00:09:40;;;;;;;12.80;11.50;;;19.00;99.90;;;;;;2079903;28;20053;-69
2021/09/27 00:10:57;;;;;;;14.27;12.88;;;19.00;99.90;;;;;;2080005;28;20045;-69
2021/09/27 00:12:10;;;;;;;12.95;11.70;;;18.90;99.90;;;;;;2080112;28;20072;-69
2021/09/27 00:13:12;;;;;;;13.18;11.60;;;18.90;99.90;;;;;;2083149;28;20090;-69
2021/09/27 00:14:13;;;;;;;12.60;11.40;;;18.90;99.90;;;;;;2079163;28;20556;-69
2021/09/27 00:15:18;;;;;;;12.48;11.30;;;18.90;99.90;;;;;;2080345;28;20029;-69
2021/09/27 00:16:20;;;;;;;12.55;11.13;;;18.90;99.90;;;;;;2080136;28;20104;-69
2021/09/27 00:17:21;;;;;;;11.77;10.68;;;18.90;99.90;;;;;;2083283;28;20025;-69
2021/09/27 00:18:23;;;;;;;12.07;10.93;;;18.90;99.90;;;;;;2084099;28;20030;-68
2021/09/27 00:19:24;;;;;;;11.77;10.77;;;18.90;99.90;;;;;;2080020;28;20484;-68
2021/09/27 00:20:25;;;;;;;11.52;10.43;;;18.90;99.90;;;;;;2079634;28;20080;-68
2021/09/27 00:21:30;;;;;;;12.73;11.43;;;18.80;99.90;;;;;;2079994;28;20021;-69
2021/09/27 00:22:30;;;;;;;12.60;11.40;;;18.80;99.90;;;;;;2079677;28;20450;-69
2021/09/27 00:23:34;;;;;;;12.13;10.57;;;18.80;99.90;;;;;;2080266;28;20075;-69
2021/09/27 00:24:35;;;;;;;11.93;10.68;;;18.80;99.90;;;;;;2079674;28;20112;-69
2021/09/27 00:25:36;;;;;;;12.20;10.90;;;18.80;99.90;;;;;;2079271;28;20029;-69
2021/09/27 00:26:37;;;;;;;10.88;9.90;;;18.80;99.90;;;;;;2079201;28;20033;-69
2021/09/27 00:27:37;;;;;;;12.38;11.18;;;18.80;99.90;;;;;;2079405;28;20040;-69
2021/09/27 00:28:38;;;;;;;12.15;10.93;;;18.80;99.90;;;;;;2079121;28;20028;-69
2021/09/27 00:29:39;;;;;;;11.98;10.88;;;18.80;99.90;;;;;;2080109;28;20104;-69
2021/09/27 00:30:40;;;;;;;12.40;11.20;;;18.80;99.90;;;;;;2085966;28;20068;-68
2021/09/27 00:31:41;;;;;;;12.50;11.23;;;18.80;99.90;;;;;;2086053;28;20509;-69
2021/09/27 00:32:42;;;;;;;12.77;10.38;;;18.80;99.90;;;;;;2089872;28;20142;-69
2021/09/27 00:33:43;;;;;;;11.80;10.43;;;18.80;99.90;;;;;;2094620;28;20051;-69
2021/09/27 00:34:44;;;;;;;10.98;9.90;;;18.70;99.90;;;;;;2086609;28;20102;-71
2021/09/27 00:35:44;;;;;;;11.48;10.38;;;18.70;99.90;;;;;;2087110;28;20032;-69
2021/09/27 00:36:45;;;;;;;10.90;9.77;;;18.70;99.90;;;;;;2080297;28;20644;-69
2021/09/27 00:37:46;;;;;;;10.73;9.82;;;18.70;99.90;;;;;;2083794;28;20440;-69
2021/09/27 00:38:47;;;;;;;10.35;9.45;;;18.70;99.90;;;;;;2085858;28;20021;-69
2021/09/27 00:39:47;;;;;;;10.55;9.65;;;18.70;99.90;;;;;;2087319;28;20038;-69
2021/09/27 00:40:52;;;;;;;11.40;10.35;;;18.70;99.90;;;;;;2086523;28;20489;-71
2021/09/27 00:41:52;;;;;;;11.23;10.23;;;18.70;99.90;;;;;;2080067;28;20029;-71
2021/09/27 00:42:54;;;;;;;10.63;9.73;;;18.70;99.90;;;;;;2079723;28;20057;-69
2021/09/27 00:43:54;;;;;;;11.80;10.70;;;18.70;99.90;;;;;;2079768;28;20461;-69
2021/09/27 00:44:56;;;;;;;12.45;11.15;;;18.70;99.90;;;;;;2079721;28;20092;-70
2021/09/27 00:46:00;;;;;;;11.80;10.70;;;18.60;99.90;;;;;;2079993;28;20067;-69
2021/09/27 00:47:01;;;;;;;10.93;9.93;;;18.60;99.90;;;;;;2079767;28;20052;-71
2021/09/27 00:48:01;;;;;;;12.05;10.70;;;18.60;99.90;;;;;;2082676;28;20021;-71
2021/09/27 00:49:03;;;;;;;11.02;10.00;;;18.60;99.90;;;;;;2084266;28;20028;-70
2021/09/27 00:50:06;;;;;;;10.98;9.88;;;18.60;99.90;;;;;;2079116;28;20033;-71
2021/09/27 00:51:18;;;;;;;10.63;9.68;;;18.60;99.90;;;;;;2085944;28;20052;-71
2021/09/27 00:52:18;;;;;;;10.82;9.75;;;18.60;99.90;;;;;;2088191;28;20033;-71
2021/09/27 00:53:40;;;;;;;11.10;10.07;;;18.60;99.90;;;;;;2088131;28;20017;-71
2021/09/27 00:54:41;;;;;;;9.52;8.63;;;18.60;99.90;;;;;;2088225;28;20385;-71
2021/09/27 00:55:42;;;;;;;10.80;9.90;;;18.60;99.90;;;;;;2087904;28;20107;-71
2021/09/27 00:56:51;;;;;;;13.35;10.18;;;18.60;99.90;;;;;;2088004;28;20035;-71
2021/09/27 00:57:54;;;;;;;11.10;10.00;;;18.50;99.90;;;;;;2079785;28;20032;-71
2021/09/27 00:58:57;;;;;;;10.45;9.40;;;18.50;99.90;;;;;;2079073;28;20076;-71
2021/09/27 00:59:58;;;;;;;10.43;9.45;;;18.50;99.90;;;;;;2079938;28;20556;-71
2021/09/27 01:00:59;;;;;;;11.00;9.90;;;18.50;99.90;;;;;;2081379;28;20215;-71
2021/09/27 01:01:59;;;;;;;11.82;9.50;;;18.50;99.90;;;;;;2080127;28;20026;-71
2021/09/27 01:03:00;;;;;;;10.70;9.65;;;18.40;99.90;;;;;;2079818;28;20056;-71
2021/09/27 01:04:01;;;;;;;11.07;9.90;;;18.50;99.90;;;;;;2079447;28;20045;-71
2021/09/27 01:05:05;;;;;;;10.50;9.38;;;18.40;99.90;;;;;;2080874;28;20013;-71
2021/09/27 01:06:18;;;;;;;10.82;9.70;;;18.40;99.90;;;;;;2078745;28;20449;-71
2021/09/27 01:07:33;;;;;;;11.00;9.93;;;18.40;99.90;;;;;;2079718;28;20032;-70
2021/09/27 01:08:59;;;;;;;9.93;9.13;;;18.40;99.90;;;;;;2079184;28;20515;-71
2021/09/27 01:10:24;;;;;;;10.00;9.00;;;18.40;99.90;;;;;;2085276;28;20033;-71
2021/09/27 01:11:34;;;;;;;10.20;9.02;;;18.30;99.90;;;;;;2079842;28;20416;-71
2021/09/27 01:12:46;;;;;;;10.75;9.65;;;18.30;99.90;;;;;;2079695;28;20397;-71
2021/09/27 01:14:05;;;;;;;10.05;8.95;;;18.30;99.90;;;;;;2079471;28;20044;-71
2021/09/27 01:15:18;;;;;;;10.85;9.60;;;18.30;99.90;;;;;;2080697;28;20476;-71
2021/09/27 01:16:39;;;;;;;10.85;9.75;;;18.30;99.90;;;;;;2087269;28;20523;-71
2021/09/27 01:18:02;;;;;;;9.80;8.90;;;18.20;99.90;;;;;;2079835;28;20152;-71
2021/09/27 01:19:23;;;;;;;10.18;9.25;;;18.20;99.90;;;;;;2079197;28;20025;-70
2021/09/27 01:20:51;;;;;;;10.10;9.10;;;18.20;99.90;;;;;;2086620;28;20049;-71
2021/09/27 01:22:01;;;;;;;10.23;8.85;;;18.20;99.90;;;;;;2087552;28;20025;-70
2021/09/27 01:23:23;;;;;;;9.48;8.45;;;18.20;99.90;;;;;;2087771;28;20404;-71
2021/09/27 01:24:32;;;;;;;11.23;9.55;;;18.20;99.90;;;;;;2087439;28;20025;-71
2021/09/27 01:26:14;;;;;;;9.90;9.00;;;18.20;99.90;;;;;;2087847;28;20056;-71
2021/09/27 01:27:42;;;;;;;10.45;8.75;;;18.10;99.90;;;;;;2054305;28;20027;-70
2021/09/27 01:29:08;;;;;;;9.93;8.88;;;18.10;99.90;;;;;;2087057;28;20057;-71
2021/09/27 01:30:54;;;;;;;9.73;8.82;;;18.10;99.90;;;;;;2084303;28;20034;-71
2021/09/27 01:32:30;;;;;;;9.68;8.65;;;18.10;99.90;;;;;;2062309;28;20026;-71
2021/09/27 01:33:56;;;;;;;9.82;8.93;;;18.10;99.90;;;;;;2079878;28;20017;-70
2021/09/27 01:35:22;;;;;;;9.98;9.05;;;18.00;99.90;;;;;;2079316;28;20486;-71
2021/09/27 01:36:41;;;;;;;10.18;8.63;;;18.00;99.90;;;;;;2068633;28;20037;-71
2021/09/27 01:38:11;;;;;;;11.55;9.40;;;18.00;99.90;;;;;;2079638;28;20018;-71
2021/09/27 01:39:23;;;;;;;10.45;8.77;;;18.00;99.90;;;;;;2080671;28;20017;-71
2021/09/27 01:40:50;;;;;;;9.93;8.98;;;18.00;99.90;;;;;;2079966;28;20043;-71
2021/09/27 01:42:09;;;;;;;10.23;9.27;;;18.00;99.90;;;;;;2080004;28;20079;-71
2021/09/27 01:43:31;;;;;;;10.20;9.13;;;18.00;99.90;;;;;;2087005;28;20370;-71
2021/09/27 01:45:00;;;;;;;9.73;8.68;;;18.00;99.90;;;;;;2084103;28;20489;-71
2021/09/27 01:46:17;;;;;;;10.05;9.10;;;18.00;99.90;;;;;;2071223;28;20129;-71
2021/09/27 01:47:28;;;;;;;10.02;8.98;;;18.00;99.90;;;;;;2079519;28;20034;-71
2021/09/27 01:48:43;;;;;;;10.50;9.27;;;18.10;99.90;;;;;;2079010;28;20466;-71
2021/09/27 01:50:10;;;;;;;10.60;9.55;;;18.10;99.90;;;;;;2079780;28;20029;-70
2021/09/27 01:51:24;;;;;;;10.05;9.05;;;18.10;99.90;;;;;;2079313;28;20632;-71
2021/09/27 01:52:34;;;;;;;10.60;9.50;;;18.10;99.90;;;;;;2079432;28;20018;-71
2021/09/27 01:53:38;;;;;;;11.00;9.60;;;18.10;99.90;;;;;;2079355;28;20471;-71
2021/09/27 01:54:41;;;;;;;10.38;9.02;;;18.10;99.90;;;;;;2079707;28;20492;-71
2021/09/27 01:56:13;;;;;;;10.20;9.15;;;18.10;99.90;;;;;;2079491;28;20036;-71
2021/09/27 01:57:29;;;;;;;10.45;9.50;;;18.10;99.90;;;;;;2079516;28;20021;-71
2021/09/27 01:58:48;;;;;;;10.63;9.45;;;18.10;99.90;;;;;;2087024;28;20021;-71
2021/09/27 02:00:04;;;;;;;9.90;8.93;;;18.10;99.90;;;;;;2087000;28;20033;-71
2021/09/27 02:01:12;;;;;;;10.00;8.75;;;18.10;99.90;;;;;;2080608;28;20040;-71
2021/09/27 02:02:22;;;;;;;10.13;8.93;;;18.10;99.90;;;;;;2081036;28;20068;-71
2021/09/27 02:03:27;;;;;;;12.73;8.73;;;18.10;99.90;;;;;;2080696;28;20045;-71
2021/09/27 02:04:38;;;;;;;9.93;8.65;;;18.10;99.90;;;;;;2080900;28;20026;-71
2021/09/27 02:06:06;;;;;;;10.02;9.10;;;18.10;99.90;;;;;;2080593;28;20029;-71
2021/09/27 02:07:07;;;;;;;11.63;8.90;;;18.10;99.90;;;;;;2080618;28;20600;-71
2021/09/27 02:08:14;;;;;;;10.48;9.40;;;18.10;99.90;;;;;;2080326;28;20437;-71
2021/09/27 02:09:19;;;;;;;10.30;9.30;;;18.10;99.90;;;;;;2080930;28;20014;-71
2021/09/27 02:10:30;;;;;;;10.30;9.27;;;18.10;99.90;;;;;;2080826;28;20029;-71
2021/09/27 02:11:34;;;;;;;10.05;9.10;;;18.10;99.90;;;;;;2080738;28;20148;-71
2021/09/27 02:12:42;;;;;;;11.00;9.95;;;18.10;99.90;;;;;;2080895;28;20037;-71
2021/09/27 02:13:52;;;;;;;11.40;9.55;;;18.10;99.90;;;;;;2088211;28;20389;-71
2021/09/27 02:15:03;;;;;;;10.93;9.90;;;18.10;99.90;;;;;;2088487;28;20017;-71
2021/09/27 02:16:16;;;;;;;10.35;9.32;;;18.10;99.90;;;;;;2080718;28;20025;-71
2021/09/27 02:17:38;;;;;;;12.30;9.80;;;18.10;99.90;;;;;;2080930;28;20029;-71
2021/09/27 02:18:50;;;;;;;11.18;9.50;;;18.00;99.90;;;;;;2079977;28;20100;-71
2021/09/27 02:20:17;;;;;;;9.90;8.80;;;18.10;99.90;;;;;;2080613;28;20048;-71
2021/09/27 02:21:24;;;;;;;9.82;8.93;;;18.00;99.90;;;;;;2080943;28;20044;-71
2021/09/27 02:22:42;;;;;;;10.55;9.10;;;18.00;99.90;;;;;;2080788;28;20506;-71
2021/09/27 02:24:04;;;;;;;9.57;8.68;;;18.00;99.90;;;;;;2080800;28;20481;-71
2021/09/27 02:25:17;;;;;;;13.35;9.73;;;18.00;99.90;;;;;;2085363;28;20040;-71
2021/09/27 02:26:19;;;;;;;11.20;9.50;;;18.00;99.90;;;;;;2087693;28;20021;-71
2021/09/27 02:27:20;;;;;;;10.98;9.60;;;18.00;99.90;;;;;;2080931;28;20398;-70
2021/09/27 02:28:23;;;;;;;10.77;9.75;;;18.00;99.90;;;;;;2082101;28;20030;-71
2021/09/27 02:29:24;;;;;;;10.93;9.82;;;17.90;99.90;;;;;;2080649;28;20071;-70
2021/09/27 02:30:31;;;;;;;10.77;9.73;;;17.90;99.90;;;;;;2079956;28;20752;-71
2021/09/27 02:31:49;;;;;;;10.63;9.35;;;17.90;99.90;;;;;;2080368;28;20018;-71
2021/09/27 02:33:08;;;;;;;9.02;8.23;;;18.00;99.90;;;;;;2080675;28;20045;-71
2021/09/27 02:34:35;;;;;;;10.55;9.05;;;18.00;99.90;;;;;;2080844;28;20029;-71
2021/09/27 02:35:49;;;;;;;9.98;8.98;;;18.00;99.90;;;;;;2081019;28;20037;-70
2021/09/27 02:37:00;;;;;;;10.30;9.13;;;17.90;99.90;;;;;;2080671;28;20080;-70
2021/09/27 02:38:19;;;;;;;11.23;9.13;;;17.90;99.90;;;;;;2081916;28;20029;-71
2021/09/27 02:39:36;;;;;;;9.27;8.43;;;17.90;99.90;;;;;;2083725;28;20021;-70
2021/09/27 02:40:49;;;;;;;9.65;8.63;;;17.90;99.90;;;;;;2082178;28;20026;-70
2021/09/27 02:41:55;;;;;;;10.63;9.50;;;17.90;99.90;;;;;;2082318;28;20029;-71
2021/09/27 02:43:03;;;;;;;11.60;9.43;;;17.90;99.90;;;;;;2082016;28;20474;-71
2021/09/27 02:44:05;;;;;;;10.90;9.65;;;17.90;99.90;;;;;;2084230;28;20503;-71
2021/09/27 02:45:08;;;;;;;10.27;9.38;;;17.90;99.90;;;;;;2082134;28;20033;-71
2021/09/27 02:46:11;;;;;;;10.57;9.45;;;17.90;99.90;;;;;;2082312;28;20029;-71
2021/09/27 02:47:20;;;;;;;10.50;9.55;;;17.90;99.90;;;;;;2082014;28;20116;-70
2021/09/27 02:48:34;;;;;;;13.00;9.25;;;17.90;99.90;;;;;;2081808;28;20040;-70
2021/09/27 02:49:43;;;;;;;11.00;9.90;;;17.90;99.90;;;;;;2082225;28;20040;-70
2021/09/27 02:50:53;;;;;;;11.32;9.80;;;17.90;99.90;;;;;;2085520;28;20036;-70
2021/09/27 02:51:58;;;;;;;11.82;9.73;;;17.90;99.90;;;;;;2090275;28;20507;-71
2021/09/27 02:52:58;;;;;;;11.13;9.98;;;17.90;99.90;;;;;;2090160;28;20040;-71
2021/09/27 02:53:59;;;;;;;11.25;10.05;;;17.90;99.90;;;;;;2090315;28;20031;-71
2021/09/27 02:55:09;;;;;;;10.38;9.38;;;17.90;99.90;;;;;;2090393;28;20112;-71
2021/09/27 02:56:38;;;;;;;11.75;9.65;;;17.90;99.90;;;;;;2089021;28;20036;-70
2021/09/27 02:57:47;;;;;;;10.95;9.10;;;17.90;99.90;;;;;;2082407;28;20103;-71
2021/09/27 02:59:03;;;;;;;10.77;9.63;;;17.90;99.90;;;;;;2081566;28;20038;-71
2021/09/27 03:00:09;;;;;;;11.00;9.90;;;17.90;99.90;;;;;;2082002;28;20021;-71
2021/09/27 03:01:18;;;;;;;10.35;9.40;;;17.80;99.90;;;;;;2081967;28;20021;-71
2021/09/27 03:02:42;;;;;;;10.07;9.10;;;17.80;99.90;;;;;;2085723;28;20019;-71
2021/09/27 03:03:57;;;;;;;9.93;8.95;;;17.80;99.90;;;;;;2089377;28;20369;-71
2021/09/27 03:05:04;;;;;;;10.13;9.13;;;17.80;99.90;;;;;;2089510;28;20021;-71
2021/09/27 03:06:21;;;;;;;9.77;8.73;;;17.80;99.90;;;;;;2089460;28;20100;-71
2021/09/27 03:07:41;;;;;;;10.95;9.90;;;17.90;99.90;;;;;;2089363;28;20013;-71
2021/09/27 03:09:00;;;;;;;10.00;9.10;;;17.80;99.90;;;;;;2088641;28;20056;-71
2021/09/27 03:10:26;;;;;;;12.07;10.88;;;17.80;99.90;;;;;;2089077;28;20021;-71
2021/09/27 03:11:37;;;;;;;11.43;10.25;;;17.80;99.90;;;;;;2080568;28;20017;-71
2021/09/27 03:13:13;;;;;;;11.65;10.02;;;17.80;99.90;;;;;;2080598;28;20465;-71
2021/09/27 03:14:36;;;;;;;11.73;9.73;;;17.80;99.90;;;;;;2073885;28;20029;-71
2021/09/27 03:15:52;;;;;;;12.10;9.55;;;17.70;99.90;;;;;;2080666;28;20018;-71
2021/09/27 03:16:52;;;;;;;12.80;10.23;;;17.70;99.90;;;;;;2080759;28;20060;-71
2021/09/27 03:18:08;;;;;;;11.25;10.15;;;17.70;99.90;;;;;;2080751;28;20486;-71
2021/09/27 03:19:27;;;;;;;10.82;9.73;;;17.80;99.90;;;;;;2080742;28;20465;-71
2021/09/27 03:20:45;;;;;;;11.10;8.90;;;17.80;99.90;;;;;;2080526;28;20053;-71
2021/09/27 03:22:04;;;;;;;14.73;10.25;;;17.80;99.90;;;;;;2080629;28;20079;-71
2021/09/27 03:23:15;;;;;;;13.65;10.10;;;17.80;99.90;;;;;;2080502;28;20385;-71
2021/09/27 03:24:39;;;;;;;11.65;10.15;;;17.80;99.90;;;;;;2080869;28;20022;-71
2021/09/27 03:26:19;;;;;;;11.93;10.30;;;17.80;99.90;;;;;;2080963;28;20060;-71
2021/09/27 03:27:52;;;;;;;10.88;9.57;;;17.80;99.90;;;;;;2039253;29;20035;-71
2021/09/27 03:29:17;;;;;;;12.23;10.60;;;17.80;99.90;;;;;;2062823;28;20036;-71
2021/09/27 03:30:30;;;;;;;13.60;10.02;;;17.70;99.90;;;;;;2080623;28;20038;-71
2021/09/27 03:32:01;;;;;;;11.32;10.15;;;17.70;99.90;;;;;;2080876;28;20021;-71
2021/09/27 03:33:13;;;;;;;10.77;9.68;;;17.80;99.90;;;;;;2080367;28;20026;-71
2021/09/27 03:34:20;;;;;;;10.27;9.27;;;17.80;99.90;;;;;;2080489;28;20024;-71
2021/09/27 03:35:30;;;;;;;12.05;9.98;;;17.80;99.90;;;;;;2080575;28;20627;-71
2021/09/27 03:36:45;;;;;;;12.13;9.52;;;17.80;99.90;;;;;;2080775;28;20022;-71
2021/09/27 03:38:07;;;;;;;11.50;10.30;;;17.80;99.90;;;;;;2080545;28;20061;-70
2021/09/27 03:39:30;;;;;;;12.68;9.60;;;17.80;99.90;;;;;;2081845;28;20025;-71
2021/09/27 03:40:59;;;;;;;10.63;8.82;;;17.80;99.90;;;;;;2080705;28;20029;-70
2021/09/27 03:42:17;;;;;;;11.40;10.20;;;17.80;99.90;;;;;;2080842;28;20029;-70
2021/09/27 03:44:06;;;;;;;12.32;9.82;;;17.80;99.90;;;;;;2088103;28;20036;-71
2021/09/27 03:45:40;;;;;;;11.70;10.15;;;17.80;99.90;;;;;;2055116;28;20470;-71
2021/09/27 03:46:54;;;;;;;11.73;9.55;;;17.80;99.90;;;;;;2054760;28;20519;-71
2021/09/27 03:48:04;;;;;;;10.63;9.52;;;17.90;99.90;;;;;;2088569;28;20036;-71
2021/09/27 03:49:24;;;;;;;10.93;9.82;;;17.90;99.90;;;;;;2085607;28;20021;-71
2021/09/27 03:50:29;;;;;;;11.30;10.07;;;17.90;99.90;;;;;;2079747;28;20106;-71
2021/09/27 03:51:36;;;;;;;13.43;10.32;;;17.90;99.90;;;;;;2079695;28;20259;-71
2021/09/27 03:52:58;;;;;;;11.32;10.23;;;17.90;99.90;;;;;;2080361;28;20018;-71
2021/09/27 03:54:15;;;;;;;10.77;9.68;;;17.90;99.90;;;;;;2084130;28;20116;-71
2021/09/27 03:55:24;;;;;;;13.60;9.63;;;18.00;99.90;;;;;;2080308;28;20069;-71
2021/09/27 03:56:41;;;;;;;13.18;9.50;;;18.00;99.90;;;;;;2080522;28;20021;-71
2021/09/27 03:58:03;;;;;;;11.52;9.65;;;18.00;99.90;;;;;;2082137;28;20068;-71
2021/09/27 03:59:19;;;;;;;10.77;9.73;;;18.00;99.90;;;;;;2081147;28;20440;-71
2021/09/27 04:00:34;;;;;;;13.05;9.98;;;18.00;99.90;;;;;;2085567;28;20718;-71
2021/09/27 04:01:35;;;;;;;11.90;9.77;;;18.00;99.90;;;;;;2080633;28;20028;-71
2021/09/27 04:03:02;;;;;;;10.90;9.48;;;18.00;99.90;;;;;;2080004;28;20026;-71
2021/09/27 04:04:27;;;;;;;11.27;9.93;;;18.00;99.90;;;;;;2080143;28;20022;-71
2021/09/27 04:06:06;;;;;;;11.30;9.32;;;18.00;99.90;;;;;;2080384;28;20108;-70
2021/09/27 04:07:19;;;;;;;10.43;9.30;;;18.00;99.90;;;;;;2069979;28;20049;-70
2021/09/27 04:08:34;;;;;;;11.48;9.98;;;18.00;99.90;;;;;;2080134;28;20048;-71
2021/09/27 04:09:56;;;;;;;11.88;10.07;;;18.00;99.90;;;;;;2086040;28;20118;-71
2021/09/27 04:11:21;;;;;;;13.43;10.13;;;18.10;99.90;;;;;;2080077;28;20028;-71
2021/09/27 04:12:41;;;;;;;10.95;9.43;;;18.00;99.90;;;;;;2080258;28;20050;-71
2021/09/27 04:14:04;;;;;;;11.63;10.35;;;18.10;99.90;;;;;;2080164;28;20025;-71
2021/09/27 04:15:32;;;;;;;11.85;9.57;;;18.10;99.90;;;;;;2058597;28;20101;-71
2021/09/27 04:16:53;;;;;;;11.02;9.88;;;18.10;99.90;;;;;;2080007;28;20033;-71
2021/09/27 04:18:42;;;;;;;9.80;8.77;;;18.10;99.90;;;;;;2080288;28;20052;-71
2021/09/27 04:19:52;;;;;;;11.50;9.23;;;18.10;99.90;;;;;;2080314;28;20489;-71
2021/09/27 04:21:08;;;;;;;10.38;9.27;;;18.10;99.90;;;;;;2079863;28;20034;-71
2021/09/27 04:22:29;;;;;;;10.40;9.40;;;18.10;99.90;;;;;;2083729;28;20078;-71
2021/09/27 04:23:54;;;;;;;12.98;10.20;;;18.10;99.90;;;;;;2093589;28;20024;-71
2021/09/27 04:25:12;;;;;;;10.60;9.57;;;18.10;99.90;;;;;;2080172;28;20033;-71
2021/09/27 04:26:53;;;;;;;10.48;9.40;;;18.10;99.90;;;;;;2091958;28;20041;-71
2021/09/27 04:28:13;;;;;;;11.13;9.50;;;18.10;99.90;;;;;;2080326;28;20017;-71
2021/09/27 04:29:28;;;;;;;13.52;11.02;;;18.00;99.90;;;;;;2080077;28;20354;-71
2021/09/27 04:30:46;;;;;;;11.25;10.05;;;18.00;99.90;;;;;;2080050;28;20033;-71
2021/09/27 04:32:01;;;;;;;10.80;9.40;;;18.00;99.90;;;;;;2080065;28;20025;-71
2021/09/27 04:33:36;;;;;;;12.98;10.73;;;18.10;99.90;;;;;;2079793;28;20028;-71
2021/09/27 04:34:50;;;;;;;12.55;10.32;;;18.10;99.90;;;;;;2086459;28;20082;-71
2021/09/27 04:35:55;;;;;;;10.93;9.82;;;18.00;99.90;;;;;;2083621;28;20079;-71
2021/09/27 04:36:57;;;;;;;12.07;10.75;;;18.00;99.90;;;;;;2085248;28;20381;-71
2021/09/27 04:38:00;;;;;;;10.60;9.50;;;18.00;99.90;;;;;;2087592;28;20088;-71
2021/09/27 04:39:09;;;;;;;11.20;10.05;;;18.10;99.90;;;;;;2087230;28;20044;-71
2021/09/27 04:40:12;;;;;;;11.60;10.25;;;18.10;99.90;;;;;;2083869;28;20653;-71
2021/09/27 04:41:40;;;;;;;11.98;10.77;;;18.10;99.90;;;;;;2084423;28;20017;-71
2021/09/27 04:42:56;;;;;;;9.80;8.90;;;18.10;99.90;;;;;;2085432;28;20029;-71
2021/09/27 04:44:04;;;;;;;11.15;9.95;;;18.00;99.90;;;;;;2080852;28;20385;-71
2021/09/27 04:45:42;;;;;;;11.95;9.60;;;18.10;99.90;;;;;;2090153;28;20393;-71
2021/09/27 04:46:55;;;;;;;10.30;9.30;;;18.00;99.90;;;;;;2087645;28;20021;-71
2021/09/27 04:48:19;;;;;;;12.95;9.32;;;18.00;99.90;;;;;;2086463;28;20021;-71
2021/09/27 04:49:31;;;;;;;12.05;9.55;;;18.00;99.90;;;;;;2083615;28;20070;-71
2021/09/27 04:50:50;;;;;;;10.85;9.82;;;18.00;99.90;;;;;;2082650;28;20026;-71
2021/09/27 04:52:18;;;;;;;10.23;9.32;;;18.00;99.90;;;;;;2086436;28;20108;-71
2021/09/27 04:53:34;;;;;;;9.90;9.00;;;18.00;99.90;;;;;;2084613;28;20084;-71
2021/09/27 04:55:14;;;;;;;11.48;10.30;;;18.00;99.90;;;;;;2083669;28;20083;-71
2021/09/27 04:56:33;;;;;;;9.93;8.43;;;18.00;99.90;;;;;;2083610;28;20029;-71
2021/09/27 04:57:41;;;;;;;11.38;9.70;;;18.00;99.90;;;;;;2084439;28;20584;-71
2021/09/27 04:58:57;;;;;;;10.88;9.82;;;18.00;99.90;;;;;;2084458;28;20119;-71
2021/09/27 05:00:10;;;;;;;11.10;9.57;;;18.00;99.90;;;;;;2080392;28;20026;-71
2021/09/27 05:01:40;;;;;;;10.60;9.43;;;18.00;99.90;;;;;;2083800;28;20482;-71
2021/09/27 05:03:07;;;;;;;10.93;9.05;;;18.00;99.90;;;;;;2085271;28;20739;-71
2021/09/27 05:04:31;;;;;;;10.35;9.30;;;18.00;99.90;;;;;;2084960;28;20029;-71
2021/09/27 05:05:35;;;;;;;10.93;9.65;;;18.00;99.90;;;;;;2082344;28;20433;-71
2021/09/27 05:07:06;;;;;;;9.73;8.38;;;18.00;99.90;;;;;;2082149;28;20025;-71
2021/09/27 05:08:35;;;;;;;10.70;9.68;;;18.00;99.90;;;;;;2081199;28;20060;-71
2021/09/27 05:09:54;;;;;;;12.73;9.52;;;18.00;99.90;;;;;;2081200;28;20083;-71
2021/09/27 05:11:17;;;;;;;10.82;9.18;;;18.10;99.90;;;;;;2080425;28;20112;-71
2021/09/27 05:12:45;;;;;;;10.55;8.90;;;18.00;99.90;;;;;;2082504;28;20445;-71
2021/09/27 05:14:07;;;;;;;9.30;8.40;;;18.00;99.90;;;;;;2082152;28;20068;-71
2021/09/27 05:15:26;;;;;;;11.63;9.57;;;18.00;99.90;;;;;;2083088;28;20093;-71
2021/09/27 05:16:29;;;;;;;9.98;8.98;;;18.00;99.90;;;;;;2085616;28;20040;-71
2021/09/27 05:18:02;;;;;;;9.18;8.35;;;18.00;99.90;;;;;;2083658;28;20148;-71
2021/09/27 05:19:34;;;;;;;10.60;8.05;;;18.10;99.90;;;;;;2066670;28;20128;-71
2021/09/27 05:20:47;;;;;;;9.07;7.97;;;18.10;99.90;;;;;;2083336;28;20106;-71
2021/09/27 05:22:04;;;;;;;13.07;9.38;;;18.10;99.90;;;;;;2083391;28;20513;-71
2021/09/27 05:23:17;;;;;;;11.38;8.93;;;18.10;99.90;;;;;;2082165;28;20098;-71
2021/09/27 05:24:24;;;;;;;10.13;8.98;;;18.10;99.90;;;;;;2083449;28;20036;-71
2021/09/27 05:25:27;;;;;;;9.73;8.73;;;18.10;99.90;;;;;;2084816;28;20032;-71
2021/09/27 05:26:45;;;;;;;9.02;8.13;;;18.10;99.90;;;;;;2082368;28;20026;-71
2021/09/27 05:28:01;;;;;;;9.77;8.88;;;18.20;99.90;;;;;;2083637;28;20025;-71
2021/09/27 05:29:39;;;;;;;8.52;7.72;;;18.20;99.90;;;;;;2081151;28;20104;-71
2021/09/27 05:30:52;;;;;;;8.82;7.85;;;18.20;99.90;;;;;;2086570;28;20029;-71
2021/09/27 05:32:37;;;;;;;9.23;7.82;;;18.20;99.90;;;;;;2080425;28;20025;-71
2021/09/27 05:33:49;;;;;;;8.80;7.90;;;18.20;99.90;;;;;;2066801;28;20053;-71
2021/09/27 05:35:08;;;;;;;11.93;7.85;;;18.20;99.90;;;;;;2064393;28;20038;-71
2021/09/27 05:36:41;;;;;;;10.57;8.65;;;18.20;99.90;;;;;;2078198;28;20037;-71
2021/09/27 05:38:01;;;;;;;9.20;8.13;;;18.20;99.90;;;;;;2082545;28;20022;-71
2021/09/27 05:39:07;;;;;;;;;;;18.20;99.90;;;;;;2080342;28;20018;-71
2021/09/27 05:40:26;;;;;;;9.40;8.50;;;18.10;99.90;;;;;;2082534;28;20308;-71
2021/09/27 05:42:02;;;;;;;10.07;8.18;;;18.20;99.90;;;;;;2083686;28;20021;-71
2021/09/27 05:43:23;;;;;;;11.07;8.32;;;18.20;99.90;;;;;;2061661;28;20118;-71
2021/09/27 05:44:53;;;;;;;8.88;8.07;;;18.20;99.90;;;;;;2081579;28;20022;-71
2021/09/27 05:46:00;;;;;;;;;;;18.20;99.90;;;;;;2083916;28;20021;-71
2021/09/27 05:47:28;;;;;;;8.35;7.55;;;18.20;99.90;;;;;;2081338;28;19905;-71
2021/09/27 05:49:04;;;;;;;9.00;7.80;;;18.20;99.90;;;;;;2083023;28;20025;-71
2021/09/27 05:50:25;;;;;;;8.18;7.28;;;18.20;99.90;;;;;;2084920;28;20014;-71
2021/09/27 05:51:44;;;;;;;10.05;7.82;;;18.20;99.90;;;;;;2083896;28;20024;-71
2021/09/27 05:53:17;;;;;;;12.73;9.00;;;18.20;99.90;;;;;;2080699;28;20033;-71
2021/09/27 05:54:27;;;;;;;8.60;7.78;;;18.30;99.90;;;;;;2083408;28;20012;-71
2021/09/27 05:55:37;;;;;;;9.48;8.57;;;18.30;99.90;;;;;;2083808;28;20021;-71
2021/09/27 05:56:52;;;;;;;9.57;8.57;;;18.30;99.90;;;;;;2083681;28;20040;-71
2021/09/27 05:58:09;;;;;;;10.70;8.70;;;18.30;99.90;;;;;;2083617;28;20397;-71
2021/09/27 05:59:23;;;;;;;10.95;8.65;;;18.30;99.90;;;;;;2083140;28;20393;-71
2021/09/27 06:00:59;;;;;;;10.30;8.55;;;18.30;99.90;;;;;;2082728;28;20468;-71
2021/09/27 06:02:05;;;;;;;11.35;8.15;;;18.30;99.90;;;;;;2081082;28;20075;-71
2021/09/27 06:03:21;;;;;;;9.05;8.25;;;18.30;99.90;;;;;;2083339;28;20031;-71
2021/09/27 06:04:35;;;;;;;9.70;8.80;;;18.40;99.90;;;;;;2083441;28;20095;-71
2021/09/27 06:05:47;;;;;;;9.80;8.73;;;18.40;99.90;;;;;;2080593;28;20143;-71
2021/09/27 06:06:53;;;;;;;9.70;8.32;;;18.40;99.90;;;;;;2082923;28;20651;-71
2021/09/27 06:08:25;;;;;;;11.13;8.98;;;18.40;99.90;;;;;;2083222;28;20545;-71
2021/09/27 06:09:35;;;;;;;9.20;8.30;;;18.40;99.90;;;;;;2083593;28;20055;-71
2021/09/27 06:10:51;;;;;;;9.13;8.07;;;18.40;99.90;;;;;;2083615;28;20136;-75
2021/09/27 06:12:32;;;;;;;9.85;8.85;;;18.30;99.90;;;;;;2083471;28;20029;-76
2021/09/27 06:13:35;;;;;;;9.50;8.48;;;18.30;99.90;;;;;;2085072;28;20519;-76
2021/09/27 06:14:35;;;;;;;9.10;8.20;;;18.30;99.90;;;;;;2081989;28;20029;-76
2021/09/27 06:15:47;;;;;;;10.05;8.63;;;18.30;99.90;;;;;;2087386;28;20074;-76
2021/09/27 06:17:03;;;;;;;10.85;8.35;;;18.30;99.90;;;;;;2084900;28;20032;-77
2021/09/27 06:18:11;;;;;;;8.82;7.93;;;18.40;99.90;;;;;;2081033;28;20025;-76
2021/09/27 06:19:24;;;;;;;9.68;8.23;;;18.40;99.90;;;;;;2081433;28;20092;-76
2021/09/27 06:20:53;;;;;;;9.43;8.40;;;18.40;99.90;;;;;;2082004;28;20481;-76
2021/09/27 06:22:32;;;;;;;10.38;8.32;;;18.40;99.90;;;;;;2082216;28;20037;-76
2021/09/27 06:23:49;;;;;;;9.50;8.60;;;18.40;99.90;;;;;;2082108;28;20056;-77